Time;durP1;ratioP1;P1;durP2;ratioP2;P2;SDS_P1;SDS_P2;PMS_P1;PMS_P2;Temp;Humidity;BMP_temperature;BMP_pressure;BME280_temperature;BME280_humidity;BME280_pressure;Samples;Min_cycle;Max_cycle;Signal;HPM_P1;HPM_P2
2022/02/09 00:01:29;;;;;;;0.77;0.50;;;2.90;99.90;3.40;97828.00;;;;5067072;28;20453;-65
2022/02/09 00:04:27;;;;;;;0.90;0.50;;;2.90;99.90;3.20;97824.00;;;;5081761;28;20421;-64
2022/02/09 00:07:21;;;;;;;1.50;1.17;;;2.90;99.90;3.20;97838.00;;;;5081352;28;20860;-64
2022/02/09 00:10:11;;;;;;;1.40;1.30;;;2.80;99.90;3.20;97835.00;;;;5066695;28;20438;-64
2022/02/09 00:16:10;;;;;;;0.97;0.87;;;2.70;99.90;3.30;97843.00;;;;5059519;28;20441;-62
2022/02/09 00:19:05;;;;;;;0.50;0.50;;;2.70;99.90;3.00;97844.00;;;;5066970;28;20952;-66
2022/02/09 00:22:10;;;;;;;0.40;0.40;;;2.70;99.90;3.20;97845.00;;;;5074011;28;20442;-63
2022/02/09 00:25:27;;;;;;;0.57;0.50;;;2.70;99.90;3.40;97843.00;;;;5069383;28;20966;-65
2022/02/09 00:31:59;;;;;;;0.40;0.40;;;2.80;99.90;3.10;97847.00;;;;5011657;28;20496;-66
2022/02/09 00:41:23;;;;;;;0.93;0.60;;;2.60;99.90;2.90;97851.00;;;;5064392;28;20446;-66
2022/02/09 01:33:00;;;;;;;0.40;0.40;;;2.40;99.90;2.30;97876.00;;;;5070695;28;20466;-63
2022/02/09 01:41:12;;;;;;;0.80;0.60;;;2.30;99.90;3.10;97875.00;;;;5063759;28;20440;-63
2022/02/09 01:56:18;;;;;;;0.40;0.40;;;2.50;99.90;2.20;97867.00;;;;5063544;28;20422;-63
2022/02/09 01:59:08;;;;;;;0.47;0.47;;;2.30;99.90;2.20;97877.00;;;;5065746;28;20506;-64
2022/02/09 02:01:57;;;;;;;0.40;0.40;;;2.20;99.90;2.70;97858.00;;;;5063614;28;20447;-63
2022/02/09 02:04:47;;;;;;;0.40;0.40;;;2.20;99.90;3.00;97869.00;;;;5065944;28;20430;-63
2022/02/09 02:07:45;;;;;;;1.00;0.50;;;2.30;99.90;2.90;97872.00;;;;5071442;28;20451;-64
2022/02/09 02:10:44;;;;;;;0.50;0.40;;;2.40;99.90;2.50;97871.00;;;;5099383;28;20432;-64
2022/02/09 02:13:54;;;;;;;0.30;0.30;;;2.30;99.90;2.40;97869.00;;;;5065316;28;21023;-66
2022/02/09 02:16:48;;;;;;;0.40;0.40;;;2.20;99.90;2.30;97871.00;;;;5069569;28;20744;-65
2022/02/09 02:19:42;;;;;;;0.97;0.87;;;2.20;99.90;2.40;97879.00;;;;5082154;28;20505;-67
2022/02/09 02:22:45;;;;;;;0.40;0.40;;;2.10;99.90;2.70;97871.00;;;;5066702;28;20438;-65
2022/02/09 02:25:58;;;;;;;0.40;0.40;;;2.10;99.90;2.30;97864.00;;;;5068037;28;20441;-65
2022/02/09 02:29:09;;;;;;;0.40;0.40;;;2.10;99.90;2.60;97868.00;;;;5067114;28;20430;-64
2022/02/09 02:35:47;;;;;;;0.50;0.50;;;2.20;99.90;2.50;97869.00;;;;5043794;28;20949;-64
2022/02/09 02:57:52;;;;;;;1.33;0.67;;;1.80;99.90;2.30;97848.00;;;;5068016;28;20960;-66
2022/02/09 03:10:32;;;;;;;0.50;0.50;;;1.80;99.90;2.30;97828.00;;;;5094014;28;20439;-68
2022/02/09 03:13:26;;;;;;;0.33;0.33;;;1.80;99.90;2.50;97829.00;;;;5087707;28;20493;-65
2022/02/09 03:16:26;;;;;;;0.57;0.57;;;1.80;99.90;2.50;97832.00;;;;5067181;28;20437;-66
2022/02/09 03:19:36;;;;;;;3.23;0.77;;;1.80;99.90;2.20;97821.00;;;;5067446;28;20751;-66
2022/02/09 03:22:31;;;;;;;0.60;0.60;;;1.90;99.90;2.50;97828.00;;;;5066544;28;20452;-65
2022/02/09 03:25:44;;;;;;;0.60;0.60;;;1.90;99.90;2.50;97823.00;;;;5068222;28;20522;-66
2022/02/09 03:44:23;;;;;;;0.87;0.53;;;1.80;99.90;2.70;97811.00;;;;5066798;28;20434;-67
2022/02/09 03:50:43;;;;;;;1.33;0.53;;;2.00;99.90;2.50;97800.00;;;;4982917;28;20434;-66
2022/02/09 03:53:50;;;;;;;0.60;0.60;;;2.00;99.90;2.60;97799.00;;;;5066338;28;20473;-66
2022/02/09 03:56:56;;;;;;;1.13;0.93;;;2.00;99.90;2.70;97804.00;;;;5089172;28;20443;-66
2022/02/09 03:59:45;;;;;;;0.40;0.40;;;2.10;99.90;2.50;97802.00;;;;5078718;28;20436;-67
2022/02/09 04:02:34;;;;;;;0.67;0.50;;;2.00;99.90;2.20;97793.00;;;;5065912;28;20945;-66
2022/02/09 04:05:23;;;;;;;0.43;0.43;;;2.00;99.90;2.40;97798.00;;;;5057520;28;20434;-66
2022/02/09 04:08:15;;;;;;;0.77;0.77;;;1.90;99.90;2.60;97797.00;;;;5071601;28;20442;-66
2022/02/09 04:11:10;;;;;;;0.60;0.47;;;1.90;99.90;2.60;97789.00;;;;5065651;28;20453;-66
2022/02/09 04:14:07;;;;;;;7.63;4.53;;;2.00;99.90;2.20;97778.00;;;;5065748;28;20524;-66
2022/02/09 04:17:11;;;;;;;6.27;3.47;;;0.90;99.90;2.00;97779.00;;;;5066180;28;20465;-66
2022/02/09 04:20:22;;;;;;;2.97;1.90;;;1.80;99.90;2.30;97784.00;;;;5065649;28;20956;-66
2022/02/09 04:38:52;;;;;;;0.70;0.70;;;2.00;99.90;2.70;97794.00;;;;5099040;28;20425;-65
2022/02/09 04:42:01;;;;;;;0.67;0.67;;;2.00;99.90;2.80;97788.00;;;;5070830;28;20449;-66
2022/02/09 04:45:29;;;;;;;0.80;0.70;;;2.10;99.90;2.80;97783.00;;;;5065200;28;20945;-64
2022/02/09 04:48:34;;;;;;;0.40;0.40;;;2.10;99.90;2.50;97780.00;;;;5066081;28;20937;-65
2022/02/09 04:51:28;;;;;;;0.53;0.50;;;2.10;99.90;2.70;97777.00;;;;5065283;28;20450;-64
2022/02/09 04:54:27;;;;;;;0.70;0.70;;;2.10;99.90;2.80;97776.00;;;;5065612;28;21011;-65
2022/02/09 04:57:28;;;;;;;0.50;0.50;;;2.10;99.90;3.10;97778.00;;;;5065416;28;20418;-65
2022/02/09 05:00:28;;;;;;;0.50;0.50;;;2.20;99.90;3.00;97771.00;;;;5065130;28;20437;-66
2022/02/09 05:03:44;;;;;;;0.70;0.60;;;2.30;99.90;2.50;97779.00;;;;5063324;28;20426;-66
2022/02/09 05:28:29;;;;;;;0.67;0.67;;;2.40;99.90;3.30;97809.00;;;;5056815;28;20445;-66
2022/02/09 05:31:19;;;;;;;2.37;0.90;;;2.50;99.90;3.20;97808.00;;;;5063703;28;20449;-65
2022/02/09 05:34:09;;;;;;;1.03;0.93;;;2.50;99.90;3.30;97806.00;;;;5085711;28;20467;-65
2022/02/09 05:37:00;;;;;;;2.90;2.27;;;2.50;99.90;3.20;97800.00;;;;5087635;28;20416;-65
2022/02/09 05:39:49;;;;;;;4.43;3.47;;;2.60;99.90;3.10;97791.00;;;;5063966;28;20427;-65
2022/02/09 05:42:38;;;;;;;3.90;2.60;;;2.50;99.90;3.30;97797.00;;;;5072819;28;20450;-65
2022/02/09 05:45:36;;;;;;;3.63;3.00;;;2.60;99.90;3.10;97797.00;;;;5071884;28;20437;-65
2022/02/09 05:49:14;;;;;;;4.43;3.70;;;2.50;99.90;3.10;97799.00;;;;5064519;28;20885;-66
2022/02/09 05:51:52;;;;;;;5.30;3.80;;;2.50;99.90;3.10;97799.00;;;;5067786;28;20686;-65
2022/02/09 05:55:02;;;;;;;4.53;3.33;;;2.50;99.90;3.10;97801.00;;;;5069596;28;20473;-65
2022/02/09 05:57:54;;;;;;;3.27;2.50;;;2.50;99.90;2.90;97814.00;;;;5068921;28;20433;-66
2022/02/09 06:00:47;;;;;;;1.60;1.20;;;2.50;99.90;2.30;97805.00;;;;5067532;28;20432;-64
2022/02/09 06:03:37;;;;;;;2.00;1.60;;;2.30;99.90;2.80;97824.00;;;;5067607;28;20948;-63
2022/02/09 06:06:26;;;;;;;1.97;1.73;;;2.30;99.90;2.60;97816.00;;;;5068290;28;20855;-65
2022/02/09 06:09:15;;;;;;;2.20;2.00;;;2.30;99.90;2.90;97821.00;;;;5079097;28;20438;-65
2022/02/09 06:12:11;;;;;;;2.33;1.97;;;2.30;99.90;2.90;97831.00;;;;5076791;28;20473;-65
2022/02/09 06:21:23;;;;;;;0.70;0.70;;;2.70;99.90;3.00;97837.00;;;;5068174;28;20445;-66
2022/02/09 06:24:12;;;;;;;1.07;0.97;;;2.40;99.90;3.20;97831.00;;;;5068022;28;20427;-65
2022/02/09 06:27:01;;;;;;;1.07;0.97;;;2.50;99.90;3.20;97832.00;;;;5071666;28;20456;-65
2022/02/09 06:29:50;;;;;;;2.33;1.97;;;2.50;99.90;2.80;97843.00;;;;5078670;28;20425;-66
2022/02/09 06:32:39;;;;;;;3.07;1.90;;;2.50;99.90;2.60;97835.00;;;;5080165;28;21015;-64
2022/02/09 06:35:27;;;;;;;3.00;1.00;;;2.40;99.90;3.00;97843.00;;;;5090277;28;20493;-67
2022/02/09 06:38:18;;;;;;;2.07;1.50;;;2.40;99.90;2.80;97846.00;;;;5079810;28;20440;-66
2022/02/09 06:41:07;;;;;;;1.73;1.40;;;2.30;99.90;2.50;97850.00;;;;5072105;28;20453;-64
2022/02/09 06:43:56;;;;;;;2.37;1.40;;;2.30;99.90;2.70;97849.00;;;;5068462;28;20434;-65
2022/02/09 06:46:45;;;;;;;1.50;1.20;;;2.30;99.90;2.80;97852.00;;;;5067428;28;20822;-65
2022/02/09 06:49:34;;;;;;;4.77;2.97;;;2.30;99.90;2.60;97849.00;;;;5070608;28;20956;-66
2022/02/09 06:52:23;;;;;;;2.97;1.53;;;2.40;99.90;2.40;97847.00;;;;5072149;28;20461;-65
2022/02/09 06:55:17;;;;;;;1.40;0.97;;;1.70;99.90;2.70;97857.00;;;;5080947;28;20544;-66
2022/02/09 06:58:15;;;;;;;1.20;1.10;;;2.30;99.90;2.60;97858.00;;;;5087649;28;20431;-66
2022/02/09 07:01:06;;;;;;;5.40;1.00;;;2.30;99.90;2.50;97858.00;;;;5067613;28;20450;-66
2022/02/09 07:03:54;;;;;;;1.43;1.03;;;2.30;99.90;2.20;97855.00;;;;5068111;28;20423;-66
2022/02/09 07:06:43;;;;;;;0.70;0.70;;;2.30;99.90;1.90;97837.00;;;;5070325;28;20854;-66
2022/02/09 07:09:34;;;;;;;1.50;1.40;;;2.20;99.90;2.20;97851.00;;;;5072759;28;20432;-65
2022/02/09 07:12:25;;;;;;;2.07;1.23;;;2.10;99.90;1.80;97854.00;;;;5066579;28;20450;-64
2022/02/09 07:15:16;;;;;;;1.50;1.10;;;2.00;99.90;2.00;97850.00;;;;5067265;28;20455;-65
2022/02/09 07:18:09;;;;;;;1.10;1.00;;;2.00;99.90;2.30;97844.00;;;;5067297;28;20435;-64
2022/02/09 07:21:03;;;;;;;3.77;2.80;;;2.10;99.90;2.60;97852.00;;;;5066699;28;20461;-65
2022/02/09 07:23:54;;;;;;;12.23;8.13;;;2.20;99.90;2.20;97841.00;;;;5066646;28;20433;-66
2022/02/09 07:27:00;;;;;;;7.67;4.20;;;3.50;99.90;2.20;97853.00;;;;5068100;28;20812;-66
2022/02/09 07:29:50;;;;;;;1.43;1.30;;;2.30;99.90;2.20;97860.00;;;;5066572;28;20430;-66
2022/02/09 07:32:39;;;;;;;3.93;3.30;;;2.20;99.90;2.50;97848.00;;;;5073306;28;20460;-66
2022/02/09 07:35:29;;;;;;;2.00;1.90;;;2.20;99.90;2.90;97846.00;;;;5093021;28;20559;-66
2022/02/09 07:38:18;;;;;;;2.60;2.40;;;2.30;99.90;2.70;97843.00;;;;5083119;28;20426;-66
2022/02/09 07:41:08;;;;;;;4.90;2.23;;;2.40;99.90;3.10;97838.00;;;;5071801;28;20840;-66
2022/02/09 07:44:14;;;;;;;3.57;3.23;;;2.50;99.90;3.00;97849.00;;;;5074451;28;20956;-65
2022/02/09 07:47:23;;;;;;;3.37;2.53;;;2.50;99.90;3.10;97841.00;;;;5080315;28;20453;-66
2022/02/09 07:50:36;;;;;;;2.27;1.50;;;2.60;99.90;3.20;97849.00;;;;5069795;28;20439;-66
2022/02/09 07:53:35;;;;;;;3.77;2.07;;;2.60;99.90;3.10;97845.00;;;;5064946;28;22107;-66
2022/02/09 07:56:23;;;;;;;1.83;1.27;;;2.60;99.90;3.40;97844.00;;;;5065486;28;20434;-65
2022/02/09 07:59:15;;;;;;;2.07;1.70;;;2.70;99.90;3.40;97840.00;;;;5066308;28;20427;-66
2022/02/09 08:02:05;;;;;;;3.70;1.63;;;2.80;99.90;3.20;97830.00;;;;5066696;28;20434;-65
2022/02/09 08:04:54;;;;;;;1.40;1.30;;;2.90;99.90;2.80;97819.00;;;;5066706;28;20422;-66
2022/02/09 08:07:43;;;;;;;0.93;0.83;;;2.80;99.90;2.20;97822.00;;;;5069101;28;20434;-66
2022/02/09 08:10:43;;;;;;;1.10;0.93;;;2.70;99.90;2.80;97821.00;;;;5066125;28;20434;-66
2022/02/09 08:26:41;;;;;;;3.50;2.60;;;3.60;99.90;4.50;97824.00;;;;5066307;28;20430;-64
2022/02/09 08:29:27;;;;;;;4.00;2.23;;;3.70;99.90;4.60;97827.00;;;;5080226;27;20434;-64
2022/02/09 08:32:39;;;;;;;1.53;1.00;;;3.90;99.90;4.60;97822.00;;;;5066484;28;20459;-65
2022/02/09 08:35:29;;;;;;;1.73;1.30;;;4.00;99.90;4.60;97829.00;;;;5077904;28;20226;-67
2022/02/09 08:38:18;;;;;;;1.30;1.20;;;4.00;99.90;4.60;97818.00;;;;5079295;28;20826;-64
2022/02/09 08:41:07;;;;;;;2.63;1.67;;;4.10;99.90;5.00;97816.00;;;;5071887;28;20518;-66
2022/02/09 08:43:56;;;;;;;1.30;1.20;;;4.20;99.90;5.00;97811.00;;;;5065749;28;20208;-67
2022/02/09 08:46:46;;;;;;;1.43;1.30;;;4.30;99.90;5.00;97827.00;;;;5066689;28;20686;-65
2022/02/09 08:49:35;;;;;;;0.90;0.90;;;4.40;99.90;5.60;97822.00;;;;5066040;28;20215;-64
2022/02/09 08:52:25;;;;;;;1.57;0.83;;;4.50;99.90;5.80;97826.00;;;;5064807;28;20223;-66
2022/02/09 08:55:14;;;;;;;2.33;1.30;;;4.70;99.90;6.20;97821.00;;;;5065604;28;20231;-66
2022/02/09 08:58:04;;;;;;;1.73;1.10;;;5.00;99.90;6.40;97818.00;;;;5065479;28;20572;-66
2022/02/09 09:00:59;;;;;;;2.67;1.10;;;5.20;99.90;6.60;97819.00;;;;5065083;28;20607;-66
2022/02/09 09:03:52;;;;;;;1.90;1.27;;;5.50;99.90;6.80;97817.00;;;;5066137;28;20200;-66
2022/02/09 09:06:44;;;;;;;1.40;1.07;;;5.70;99.90;7.00;97818.00;;;;5078903;28;20222;-65
2022/02/09 09:09:54;;;;;;;2.00;1.80;;;5.80;99.90;7.50;97821.00;;;;5068379;28;20215;-66
2022/02/09 09:19:21;;;;;;;1.50;1.27;;;6.50;99.90;8.20;97812.00;;;;5065403;28;20207;-68
2022/02/09 09:31:10;;;;;;;1.97;1.40;;;7.10;99.90;9.20;97827.00;;;;5069959;28;20206;-66
2022/02/09 10:03:28;;;;;;;2.40;1.07;;;10.00;99.90;12.10;97830.00;;;;5023610;28;20571;-69
2022/02/09 10:35:40;;;;;;;4.33;1.23;;;12.10;90.20;14.20;97800.00;;;;5079019;28;20234;-66
2022/02/09 10:38:34;;;;;;;5.27;1.40;;;12.30;90.00;14.50;97788.00;;;;5077455;28;20207;-68
2022/02/09 10:41:26;;;;;;;11.67;2.20;;;12.50;88.60;14.90;97782.00;;;;5077099;28;20231;-67
2022/02/09 10:44:21;;;;;;;2.40;1.40;;;12.70;87.30;15.50;97779.00;;;;5067611;28;20200;-69
2022/02/09 10:47:21;;;;;;;4.37;1.57;;;13.20;86.60;16.10;97774.00;;;;5068281;28;20211;-68
2022/02/09 10:50:13;;;;;;;5.97;1.83;;;13.80;85.00;16.60;97777.00;;;;5068757;28;20230;-68
2022/02/09 10:53:05;;;;;;;2.77;1.47;;;14.40;82.50;17.10;97775.00;;;;5068344;28;20220;-70
2022/02/09 10:55:54;;;;;;;2.00;0.87;;;15.00;79.30;17.60;97768.00;;;;5069202;28;20222;-70
2022/02/09 10:58:43;;;;;;;2.97;1.13;;;15.60;76.70;17.80;97755.00;;;;5068600;28;20203;-68
2022/02/09 11:01:35;;;;;;;1.60;1.10;;;16.10;71.60;18.30;97752.00;;;;5080875;28;20225;-69
2022/02/09 11:04:24;;;;;;;2.30;1.00;;;16.60;67.50;18.40;97753.00;;;;5081745;28;20203;-68
2022/02/09 11:07:15;;;;;;;2.77;0.80;;;16.90;63.10;18.50;97750.00;;;;5084581;28;20203;-68
2022/02/09 11:10:05;;;;;;;2.13;1.13;;;17.10;59.80;18.60;97743.00;;;;5085530;28;20665;-67
2022/02/09 11:12:56;;;;;;;1.30;0.90;;;17.30;60.30;19.50;97758.00;;;;5088600;28;20780;-68
2022/02/09 11:15:48;;;;;;;1.87;0.90;;;17.70;61.10;19.10;97745.00;;;;5085495;28;20707;-67
2022/02/09 11:18:39;;;;;;;4.10;1.07;;;18.00;55.30;19.70;97736.00;;;;5074944;28;20198;-69
2022/02/09 11:21:31;;;;;;;1.00;0.63;;;18.20;55.00;20.10;97732.00;;;;5070424;28;20226;-70
2022/02/09 11:24:24;;;;;;;0.90;0.80;;;18.40;55.00;20.00;97729.00;;;;5070010;28;20218;-68
2022/02/09 11:27:21;;;;;;;7.20;1.77;;;18.70;53.60;19.90;97726.00;;;;5078316;28;20207;-68
2022/02/09 11:30:20;;;;;;;3.90;0.87;;;18.90;52.40;20.50;97722.00;;;;5083280;28;20215;-68
2022/02/09 11:33:23;;;;;;;2.73;0.90;;;19.00;52.20;19.10;97718.00;;;;5073432;28;20199;-70
2022/02/09 11:36:27;;;;;;;2.00;0.73;;;18.90;50.20;20.00;97718.00;;;;5067270;28;20729;-67
2022/02/09 11:39:43;;;;;;;8.77;0.70;;;18.80;51.10;20.60;97714.00;;;;5080675;28;20208;-69
2022/02/09 11:42:41;;;;;;;1.20;0.63;;;19.00;50.80;20.10;97704.00;;;;5077554;28;20237;-68
2022/02/09 11:46:03;;;;;;;0.57;0.53;;;19.40;48.80;20.50;97704.00;;;;5066016;28;20206;-67
2022/02/09 11:56:39;;;;;;;4.67;1.00;;;20.00;48.50;22.00;97699.00;;;;5081521;28;20206;-70
2022/02/09 12:09:12;;;;;;;0.83;0.80;;;21.10;44.50;21.70;97689.00;;;;5078688;28;20211;-67
2022/02/09 12:12:09;;;;;;;0.73;0.50;;;21.30;44.30;22.00;97680.00;;;;5070199;28;20244;-68
2022/02/09 12:15:00;;;;;;;1.17;0.80;;;21.40;44.00;20.20;97668.00;;;;5079647;28;20224;-69
2022/02/09 12:18:14;;;;;;;2.27;1.10;;;21.30;42.60;22.60;97669.00;;;;5085325;28;20711;-69
2022/02/09 12:21:15;;;;;;;4.00;0.87;;;21.30;43.70;22.20;97666.00;;;;5086419;28;20696;-68
2022/02/09 12:24:22;;;;;;;1.13;0.50;;;21.40;43.40;23.00;97664.00;;;;5083017;28;20197;-68
2022/02/09 12:27:13;;;;;;;2.00;1.43;;;21.70;41.90;22.40;97657.00;;;;5079504;28;20216;-68
2022/02/09 12:30:08;;;;;;;4.37;1.20;;;22.20;41.70;21.90;97651.00;;;;5072144;28;20192;-68
2022/02/09 12:32:57;;;;;;;3.07;1.00;;;22.50;41.20;22.90;97655.00;;;;5083504;28;20211;-67
2022/02/09 12:35:45;;;;;;;4.15;0.80;;;22.70;40.10;22.70;97653.00;;;;5088089;28;20210;-68
2022/02/09 12:38:34;;;;;;;3.25;0.73;;;23.00;40.10;23.50;97646.00;;;;5080543;28;20203;-68
2022/02/09 12:41:25;;;;;;;1.05;0.70;;;22.40;39.10;24.10;97655.00;;;;5088260;28;20225;-70
2022/02/09 12:44:23;;;;;;;1.98;1.15;;;23.20;39.60;23.20;97648.00;;;;5073170;28;20203;-68
2022/02/09 12:47:13;;;;;;;4.00;0.98;;;23.60;38.70;24.30;97645.00;;;;5080932;28;20209;-68
2022/02/09 12:50:07;;;;;;;0.88;0.52;;;23.70;38.60;23.50;97635.00;;;;5070433;28;20218;-69
2022/02/09 12:52:56;;;;;;;1.25;0.75;;;24.10;37.70;24.10;97639.00;;;;5084995;28;20587;-69
2022/02/09 12:55:45;;;;;;;1.70;1.05;;;24.30;37.30;24.50;97629.00;;;;5082479;28;20220;-68
2022/02/09 12:58:35;;;;;;;3.75;0.80;;;24.40;37.30;23.60;97631.00;;;;5083405;28;20218;-69
2022/02/09 13:01:24;;;;;;;0.95;0.63;;;24.30;37.80;24.10;97623.00;;;;5079454;28;20226;-69
2022/02/09 13:04:29;;;;;;;1.48;0.68;;;24.50;36.90;25.10;97620.00;;;;5073059;28;20195;-68
2022/02/09 13:07:19;;;;;;;2.63;0.52;;;24.70;36.60;25.70;97617.00;;;;5081078;28;20243;-68
2022/02/09 13:10:10;;;;;;;1.60;0.90;;;25.10;36.20;24.80;97608.00;;;;5083805;28;20215;-68
2022/02/09 13:13:05;;;;;;;0.77;0.70;;;25.40;35.80;25.20;97610.00;;;;5078396;28;20588;-69
2022/02/09 13:16:09;;;;;;;2.22;0.88;;;25.50;35.70;26.60;97618.00;;;;5070093;28;20894;-68
2022/02/09 13:19:07;;;;;;;4.30;1.25;;;25.50;35.80;26.50;97610.00;;;;5084765;28;20201;-68
2022/02/09 14:04:19;;;;;;;4.53;1.00;;;26.70;39.30;24.50;97598.00;;;;5082895;28;20295;-67
2022/02/09 14:13:31;;;;;;;1.70;0.80;;;24.40;39.80;19.70;97585.00;;;;4991433;28;20227;-65
2022/02/09 14:54:01;;;;;;;5.67;2.37;;;17.50;48.30;16.50;97583.00;;;;5070981;28;20332;-66
2022/02/09 14:56:57;;;;;;;10.17;2.00;;;17.30;49.40;16.50;97581.00;;;;5081151;28;20230;-66
2022/02/09 15:00:03;;;;;;;1.53;1.00;;;17.30;49.60;14.90;97589.00;;;;5079971;28;20285;-66
2022/02/09 15:03:01;;;;;;;2.13;1.87;;;16.80;49.30;14.90;97577.00;;;;5079888;28;20308;-65
2022/02/09 15:09:04;;;;;;;6.20;1.67;;;15.50;51.00;14.60;97583.00;;;;5070470;28;20200;-65
2022/02/09 15:12:01;;;;;;;5.83;2.23;;;15.30;52.10;14.10;97589.00;;;;5075127;28;20593;-65
2022/02/09 15:15:11;;;;;;;5.27;1.87;;;14.80;53.00;13.00;97588.00;;;;5073298;28;20214;-65
2022/02/09 15:18:46;;;;;;;5.53;4.00;;;14.30;53.90;12.90;97591.00;;;;5086031;28;20234;-65
2022/02/09 15:24:43;;;;;;;3.53;2.20;;;13.50;55.30;12.90;97633.00;;;;5080456;28;20214;-65
2022/02/09 15:27:32;;;;;;;3.27;1.67;;;13.30;55.80;12.00;97647.00;;;;5085115;28;20199;-65
2022/02/09 15:30:21;;;;;;;3.87;2.00;;;12.90;56.30;11.30;97648.00;;;;5079873;28;20212;-64
2022/02/09 15:33:10;;;;;;;8.03;1.87;;;12.20;57.80;10.50;97635.00;;;;5090923;28;20199;-67
2022/02/09 15:35:59;;;;;;;4.40;1.43;;;11.50;59.20;10.10;97639.00;;;;5081351;28;20198;-67
2022/02/09 15:38:49;;;;;;;5.77;1.97;;;10.90;61.10;10.40;97649.00;;;;5088165;28;20219;-65
2022/02/09 15:41:55;;;;;;;5.10;2.27;;;10.50;62.60;10.50;97654.00;;;;5079158;28;20245;-66
2022/02/09 15:57:39;;;;;;;3.83;2.37;;;10.00;65.00;10.00;97637.00;;;;5068020;28;20293;-65
2022/02/09 16:09:51;;;;;;;6.03;1.93;;;9.60;67.40;10.30;97653.00;;;;5076623;28;20203;-65
2022/02/09 16:22:00;;;;;;;2.43;1.50;;;9.50;68.30;10.20;97668.00;;;;5074887;28;20218;-64
2022/02/09 16:25:18;;;;;;;2.80;1.70;;;9.60;68.80;9.30;97674.00;;;;5079183;28;20205;-65
2022/02/09 16:47:18;;;;;;;11.30;2.23;;;8.80;73.80;9.20;97690.00;;;;5079852;28;20234;-64
2022/02/09 16:50:15;;;;;;;2.50;1.20;;;8.80;74.30;9.00;97696.00;;;;5074886;28;20191;-65
2022/02/09 16:53:13;;;;;;;3.97;1.47;;;8.70;75.10;9.30;97696.00;;;;5078332;28;20194;-65
2022/02/09 17:21:07;;;;;;;3.23;2.50;;;6.70;88.80;6.50;97702.00;;;;5084413;28;20219;-65
2022/02/09 17:24:01;;;;;;;4.97;2.00;;;6.50;90.70;6.30;97707.00;;;;5068509;28;20207;-65
2022/02/09 17:26:53;;;;;;;5.23;1.70;;;6.30;91.80;6.90;97721.00;;;;5085812;28;20195;-66
2022/02/09 17:30:00;;;;;;;4.03;1.80;;;6.20;92.70;7.20;97719.00;;;;5079455;28;20363;-65
2022/02/09 17:33:00;;;;;;;2.40;2.07;;;6.30;93.00;7.10;97718.00;;;;5081331;28;20267;-65
2022/02/09 17:36:00;;;;;;;2.30;1.87;;;6.40;93.50;6.70;97717.00;;;;5085677;28;20199;-65
2022/02/09 17:38:55;;;;;;;8.83;2.83;;;6.30;94.00;6.60;97723.00;;;;5076587;28;20219;-65
2022/02/09 17:54:39;;;;;;;4.67;2.50;;;5.70;98.50;5.70;97726.00;;;;5073794;28;20564;-65
2022/02/09 17:57:29;;;;;;;8.20;3.00;;;5.50;99.80;6.10;97724.00;;;;5077685;28;20203;-65
2022/02/09 18:00:21;;;;;;;52.77;34.10;;;5.40;99.90;6.00;97724.00;;;;5083605;28;20204;-65
2022/02/09 18:03:11;;;;;;;6.97;5.47;;;5.40;99.90;5.60;97727.00;;;;5078671;28;20265;-64
2022/02/09 18:06:12;;;;;;;5.20;3.60;;;5.30;99.90;5.50;97720.00;;;;5069710;28;20211;-64
2022/02/09 18:09:07;;;;;;;5.70;4.53;;;5.30;99.90;5.20;97719.00;;;;5071430;28;20200;-64
2022/02/09 18:12:06;;;;;;;9.67;5.57;;;5.10;99.90;5.00;97726.00;;;;5068652;28;20236;-62
2022/02/09 18:15:13;;;;;;;14.07;4.60;;;4.90;99.90;5.00;97718.00;;;;5069302;28;20698;-63
2022/02/09 18:28:12;;;;;;;10.07;6.33;;;4.70;99.90;5.30;97709.00;;;;5068194;28;20204;-64
2022/02/09 18:31:08;;;;;;;9.10;6.33;;;4.70;99.90;4.90;97715.00;;;;5086169;28;20225;-62
2022/02/09 18:34:21;;;;;;;5.33;3.97;;;4.70;99.90;4.90;97717.00;;;;5087636;28;20203;-64
2022/02/09 18:43:27;;;;;;;8.17;5.83;;;4.40;99.90;4.60;97724.00;;;;5090510;28;20199;-63
2022/02/09 18:46:25;;;;;;;7.07;4.30;;;4.30;99.90;4.60;97713.00;;;;5093067;28;20207;-64
2022/02/09 19:02:05;;;;;;;7.53;4.93;;;4.00;99.90;4.10;97713.00;;;;5067594;28;20465;-64
2022/02/09 19:05:07;;;;;;;9.30;5.30;;;4.00;99.90;4.00;97700.00;;;;5067803;28;20427;-63
2022/02/09 19:08:19;;;;;;;11.97;6.63;;;3.90;99.90;3.90;97703.00;;;;5074072;28;20460;-64
2022/02/09 19:14:27;;;;;;;8.57;4.73;;;3.60;99.90;3.80;97707.00;;;;5073347;28;20979;-64
2022/02/09 19:17:26;;;;;;;7.80;3.50;;;3.60;99.90;3.20;97695.00;;;;5073705;28;20433;-64
2022/02/09 19:20:29;;;;;;;7.90;3.87;;;3.50;99.90;3.50;97708.00;;;;5082875;28;20476;-63
2022/02/09 19:26:39;;;;;;;19.77;8.60;;;3.30;99.90;3.40;97705.00;;;;5067782;28;20431;-62
2022/02/09 19:45:51;;;;;;;7.17;4.53;;;3.40;99.90;3.90;97705.00;;;;5067042;28;20842;-62
2022/02/09 19:48:43;;;;;;;8.07;4.93;;;3.40;99.90;3.80;97699.00;;;;5073184;28;20815;-63
2022/02/09 19:51:42;;;;;;;12.27;5.53;;;3.40;99.90;3.20;97695.00;;;;5088628;28;20983;-60
2022/02/09 19:54:43;;;;;;;10.33;4.57;;;3.20;99.90;3.10;97695.00;;;;5079763;28;20959;-63
2022/02/09 19:57:35;;;;;;;3.93;3.30;;;3.10;99.90;2.40;97691.00;;;;5090424;28;20821;-61
2022/02/09 20:00:27;;;;;;;11.07;6.33;;;2.90;99.90;2.50;97697.00;;;;5066548;28;20836;-61
2022/02/09 20:03:16;;;;;;;8.23;5.27;;;2.70;99.90;2.90;97702.00;;;;5066287;28;20929;-62
2022/02/09 20:06:07;;;;;;;7.90;5.47;;;2.60;99.90;2.90;97694.00;;;;5067080;28;20458;-63
2022/02/09 20:08:57;;;;;;;8.07;3.50;;;2.60;99.90;2.20;97677.00;;;;5068646;28;20433;-64
2022/02/09 20:11:46;;;;;;;2.87;2.27;;;2.50;99.90;2.20;97686.00;;;;5074308;28;21007;-63
2022/02/09 20:14:35;;;;;;;4.47;3.17;;;2.40;99.90;2.20;97689.00;;;;5069516;28;20443;-62
2022/02/09 20:17:24;;;;;;;5.60;3.97;;;2.30;99.90;2.10;97684.00;;;;5065886;28;20806;-62
2022/02/09 20:20:21;;;;;;;6.50;4.60;;;2.20;99.90;2.30;97687.00;;;;5064220;28;20951;-63
2022/02/09 20:23:11;;;;;;;5.50;3.63;;;2.10;99.90;2.50;97698.00;;;;5061421;28;20445;-63
2022/02/09 20:26:06;;;;;;;6.00;3.43;;;2.10;99.90;2.60;97696.00;;;;5080003;28;20422;-62
2022/02/09 20:29:02;;;;;;;4.03;3.03;;;2.10;99.90;2.40;97686.00;;;;5068881;28;20421;-63
2022/02/09 20:31:58;;;;;;;3.10;2.80;;;2.10;99.90;2.10;97687.00;;;;5067553;28;20837;-63
2022/02/09 20:34:54;;;;;;;5.67;2.93;;;2.10;99.90;1.80;97688.00;;;;5076909;28;20457;-61
2022/02/09 20:37:47;;;;;;;3.83;2.80;;;2.00;99.90;2.00;97683.00;;;;5067447;28;20797;-62
2022/02/09 20:40:47;;;;;;;5.07;3.13;;;1.80;99.90;2.20;97688.00;;;;5067580;28;20519;-63
2022/02/09 20:43:43;;;;;;;6.27;2.60;;;1.80;99.90;2.00;97684.00;;;;5072053;28;20436;-60
2022/02/09 20:46:34;;;;;;;2.03;1.90;;;1.80;99.90;1.40;97678.00;;;;5085055;28;20436;-60
2022/02/09 20:49:24;;;;;;;3.17;2.40;;;1.70;99.90;2.00;97687.00;;;;5068554;28;20803;-62
2022/02/09 20:52:15;;;;;;;7.40;2.93;;;1.70;99.90;2.30;97684.00;;;;5074685;28;20464;-62
2022/02/09 20:55:05;;;;;;;4.23;3.07;;;1.70;99.90;2.00;97680.00;;;;5081633;28;20430;-63
2022/02/09 20:57:56;;;;;;;7.33;3.10;;;1.70;99.90;1.70;97677.00;;;;5071174;28;20437;-63
2022/02/09 21:00:53;;;;;;;7.23;3.57;;;1.70;99.90;1.80;97682.00;;;;5067237;28;20469;-61
2022/02/09 21:03:48;;;;;;;7.70;3.83;;;1.60;99.90;1.90;97678.00;;;;5081857;28;20449;-63
2022/02/09 21:06:52;;;;;;;8.87;4.27;;;1.60;99.90;1.90;97663.00;;;;5069982;28;20828;-63
2022/02/09 21:09:49;;;;;;;6.27;5.53;;;1.50;99.90;1.80;97674.00;;;;5067064;28;20418;-63
2022/02/09 21:12:46;;;;;;;5.90;4.07;;;1.50;99.90;1.70;97680.00;;;;5076349;28;20878;-60
2022/02/09 21:15:47;;;;;;;7.17;5.37;;;1.50;99.90;1.60;97674.00;;;;5068556;28;20449;-61
2022/02/09 21:25:18;;;;;;;5.63;4.03;;;1.50;99.90;1.50;97667.00;;;;5067713;28;20426;-62
2022/02/09 21:49:14;;;;;;;4.63;3.20;;;1.20;99.90;1.50;97651.00;;;;5077135;28;20956;-62
2022/02/09 21:56:31;;;;;;;2.27;1.70;;;1.10;99.90;0.90;97643.00;;;;5060866;28;20452;-61
2022/02/09 21:59:43;;;;;;;4.90;2.60;;;1.00;99.90;1.00;97646.00;;;;5061394;28;20458;-63
2022/02/09 22:21:31;;;;;;;4.00;2.50;;;0.70;99.90;0.40;97634.00;;;;5057479;28;20460;-62
2022/02/09 22:27:31;;;;;;;5.67;2.63;;;0.50;99.90;0.30;97631.00;;;;5057240;28;20622;-63
2022/02/09 22:46:59;;;;;;;8.23;2.83;;;1.30;99.90;-0.20;97603.00;;;;5084657;28;20437;-63
2022/02/09 22:55:46;;;;;;;3.70;2.07;;;0.20;99.90;0.70;97615.00;;;;5075993;28;20433;-63
2022/02/09 22:58:35;;;;;;;2.63;1.60;;;0.20;99.90;0.30;97615.00;;;;5075725;28;20439;-63
2022/02/09 23:01:34;;;;;;;3.73;2.20;;;0.30;99.90;0.30;97623.00;;;;5078726;28;20462;-64